Time;durP1;ratioP1;P1;durP2;ratioP2;P2;SDS_P1;SDS_P2;PMS_P1;PMS_P2;Temp;Humidity;BMP_temperature;BMP_pressure;BME280_temperature;BME280_humidity;BME280_pressure;Samples;Min_cycle;Max_cycle;Signal;HPM_P1;HPM_P2
2022/03/16 00:01:04;;;;;;;6.20;5.03;;;5.20;99.90;;;;;;4970426;28;20159;-83
2022/03/16 00:03:30;;;;;;;8.82;5.00;;;5.10;99.90;;;;;;4986073;28;20023;-80
2022/03/16 00:05:56;;;;;;;10.10;5.15;;;5.10;99.90;;;;;;4979625;28;20062;-79
2022/03/16 00:08:21;;;;;;;7.85;5.18;;;5.00;99.90;;;;;;4970596;28;20118;-79
2022/03/16 00:10:47;;;;;;;7.63;4.38;;;5.00;99.90;;;;;;4974525;28;20042;-80
2022/03/16 00:13:13;;;;;;;8.48;5.68;;;4.90;99.90;;;;;;4972048;28;20027;-81
2022/03/16 00:15:38;;;;;;;9.30;5.75;;;4.80;99.90;;;;;;4971565;28;20023;-81
2022/03/16 00:18:04;;;;;;;10.75;6.28;;;4.80;99.90;;;;;;4972342;28;20472;-81
2022/03/16 00:20:30;;;;;;;10.32;5.93;;;4.80;99.90;;;;;;4957639;28;20050;-81
2022/03/16 00:22:56;;;;;;;13.50;6.07;;;4.70;99.90;;;;;;4965485;28;20030;-80
2022/03/16 00:25:23;;;;;;;8.43;5.70;;;4.80;99.90;;;;;;4971158;28;20030;-81
2022/03/16 00:27:49;;;;;;;9.95;5.75;;;4.80;99.90;;;;;;4970506;28;20101;-81
2022/03/16 00:30:15;;;;;;;6.53;4.13;;;4.70;99.90;;;;;;4988165;28;20037;-81
2022/03/16 00:32:40;;;;;;;9.82;4.57;;;4.70;99.90;;;;;;4972678;28;20037;-81
2022/03/16 00:35:06;;;;;;;7.25;4.65;;;6.30;99.90;;;;;;4973158;28;20055;-81
2022/03/16 00:37:32;;;;;;;8.43;5.07;;;4.70;99.90;;;;;;4972042;28;20030;-81
2022/03/16 00:39:58;;;;;;;12.23;4.70;;;4.70;99.90;;;;;;4980029;28;20066;-81
2022/03/16 00:42:24;;;;;;;11.38;5.20;;;4.80;99.90;;;;;;4970929;28;20396;-82
2022/03/16 00:44:50;;;;;;;12.55;4.95;;;4.90;99.90;;;;;;4967232;28;20034;-82
2022/03/16 00:47:15;;;;;;;7.88;4.25;;;4.80;99.90;;;;;;4969177;28;20421;-81
2022/03/16 00:49:41;;;;;;;8.05;4.53;;;4.70;99.90;;;;;;4962322;28;20027;-80
2022/03/16 00:52:07;;;;;;;9.75;3.47;;;4.60;99.90;;;;;;4957115;28;20115;-81
2022/03/16 00:54:33;;;;;;;7.55;3.65;;;4.60;99.90;;;;;;4957284;28;20539;-82
2022/03/16 00:56:58;;;;;;;8.82;4.63;;;4.70;99.90;;;;;;4974669;28;20118;-82
2022/03/16 00:59:24;;;;;;;6.38;4.20;;;4.70;99.90;;;;;;4975189;28;20023;-83
2022/03/16 01:01:50;;;;;;;5.15;3.60;;;4.70;99.90;;;;;;4977663;28;20046;-81
2022/03/16 01:04:16;;;;;;;7.45;3.92;;;4.70;99.90;;;;;;4976345;28;20375;-82
2022/03/16 01:09:17;;;;;;;7.45;4.10;;;4.60;99.90;;;;;;5290279;23;20423;-82
2022/03/16 01:11:42;;;;;;;9.38;4.13;;;4.50;99.90;;;;;;4940648;29;20038;-81
2022/03/16 01:14:08;;;;;;;7.22;4.63;;;4.50;99.90;;;;;;4923005;29;20618;-82
2022/03/16 01:16:35;;;;;;;7.78;4.40;;;4.50;99.90;;;;;;4920273;29;20051;-82
2022/03/16 01:19:01;;;;;;;5.47;3.47;;;4.40;99.90;;;;;;4919636;29;20035;-82
2022/03/16 01:21:27;;;;;;;7.93;3.25;;;4.30;99.90;;;;;;4930261;29;20052;-82
2022/03/16 01:23:53;;;;;;;8.48;3.65;;;4.30;99.90;;;;;;4921306;29;20111;-82
2022/03/16 01:26:18;;;;;;;5.63;3.75;;;4.30;99.90;;;;;;4920376;29;20467;-82
2022/03/16 01:28:44;;;;;;;5.22;3.83;;;4.30;99.90;;;;;;4922575;29;20028;-81
2022/03/16 01:31:10;;;;;;;5.65;4.03;;;4.30;99.90;;;;;;4922104;29;20028;-81
2022/03/16 01:33:35;;;;;;;5.57;4.18;;;4.20;99.90;;;;;;4919622;29;20039;-81
2022/03/16 01:36:01;;;;;;;4.38;3.05;;;4.10;99.90;;;;;;4919431;29;20040;-82
2022/03/16 01:38:27;;;;;;;6.35;3.63;;;4.10;99.90;;;;;;4919388;29;20115;-82
2022/03/16 01:40:52;;;;;;;3.92;2.83;;;4.00;99.90;;;;;;4939644;29;20032;-80
2022/03/16 01:43:18;;;;;;;6.93;4.38;;;4.00;99.90;;;;;;4923698;29;20123;-82
2022/03/16 01:45:49;;;;;;;12.02;4.60;;;4.00;99.90;;;;;;4922117;29;20441;-82
2022/03/16 01:48:15;;;;;;;4.47;3.35;;;4.00;99.90;;;;;;4922824;29;20051;-82
2022/03/16 01:50:41;;;;;;;4.18;3.15;;;4.00;99.90;;;;;;4922151;29;20039;-81
2022/03/16 01:53:07;;;;;;;7.65;4.45;;;4.00;99.90;;;;;;4921545;29;20111;-82
2022/03/16 01:55:33;;;;;;;6.03;3.28;;;3.80;99.90;;;;;;4921916;29;20690;-82
2022/03/16 01:58:00;;;;;;;6.22;4.05;;;3.90;99.90;;;;;;4937147;29;20133;-81
2022/03/16 02:00:26;;;;;;;7.90;4.78;;;3.80;99.90;;;;;;4920778;29;20039;-82
2022/03/16 02:02:52;;;;;;;7.85;5.00;;;3.90;99.90;;;;;;4936399;29;20023;-82
2022/03/16 02:05:17;;;;;;;10.10;4.75;;;4.00;99.90;;;;;;4939344;29;20111;-82
2022/03/16 02:07:43;;;;;;;12.65;4.90;;;4.00;99.90;;;;;;4937431;29;20515;-81
2022/03/16 02:10:10;;;;;;;9.10;4.88;;;4.00;99.90;;;;;;4939269;29;20032;-82
2022/03/16 02:12:43;;;;;;;6.65;4.63;;;4.00;99.90;;;;;;4941363;29;20019;-82
2022/03/16 02:15:10;;;;;;;9.55;3.75;;;3.90;99.90;;;;;;4941465;29;20035;-81
2022/03/16 02:17:35;;;;;;;7.93;4.20;;;3.90;99.90;;;;;;4939955;29;20028;-81
2022/03/16 02:20:01;;;;;;;8.00;4.53;;;4.10;99.90;;;;;;4941216;29;20047;-82
2022/03/16 02:22:30;;;;;;;6.50;3.63;;;4.10;99.90;;;;;;4940643;29;20039;-82
2022/03/16 02:24:55;;;;;;;6.28;4.57;;;4.20;99.90;;;;;;4939596;29;20052;-83
2022/03/16 02:27:22;;;;;;;8.63;3.92;;;4.20;99.90;;;;;;4939203;29;20036;-82
2022/03/16 02:29:48;;;;;;;4.68;3.42;;;4.20;99.90;;;;;;4936594;29;20050;-82
2022/03/16 02:32:14;;;;;;;8.45;4.20;;;4.30;99.90;;;;;;4936329;29;20024;-81
2022/03/16 02:34:40;;;;;;;14.50;3.72;;;4.30;99.90;;;;;;4933852;29;20038;-81
2022/03/16 02:37:07;;;;;;;4.88;3.30;;;4.20;99.90;;;;;;4948832;28;20048;-82
2022/03/16 02:39:32;;;;;;;5.82;3.60;;;4.00;99.90;;;;;;4936108;29;20043;-82
2022/03/16 02:41:58;;;;;;;6.85;2.90;;;3.90;99.90;;;;;;4935789;29;20585;-82
2022/03/16 02:44:23;;;;;;;5.80;2.88;;;3.90;99.90;;;;;;4934157;29;20050;-82
2022/03/16 02:46:49;;;;;;;5.65;3.40;;;4.00;99.90;;;;;;4933205;29;20027;-80
2022/03/16 02:49:15;;;;;;;5.40;2.90;;;4.10;99.90;;;;;;4932370;29;20023;-81
2022/03/16 02:51:41;;;;;;;4.93;2.70;;;4.20;99.90;;;;;;4933464;29;20028;-81
2022/03/16 02:54:06;;;;;;;9.27;3.47;;;4.20;99.90;;;;;;4934708;29;20448;-81
2022/03/16 02:56:32;;;;;;;4.57;3.15;;;4.20;99.90;;;;;;4935568;29;20452;-82
2022/03/16 02:58:58;;;;;;;4.97;3.28;;;4.20;99.90;;;;;;4936749;29;20588;-82
2022/03/16 03:01:23;;;;;;;4.47;2.65;;;4.10;99.90;;;;;;4933099;29;20039;-81
2022/03/16 03:03:49;;;;;;;5.43;3.95;;;3.80;99.90;;;;;;4920982;29;20401;-81
2022/03/16 03:06:15;;;;;;;5.60;3.60;;;3.70;99.90;;;;;;4935243;29;20100;-81
2022/03/16 03:08:40;;;;;;;6.32;3.78;;;4.00;99.90;;;;;;4921221;29;20113;-80
2022/03/16 03:11:06;;;;;;;8.30;3.67;;;3.80;99.90;;;;;;4917820;29;20024;-82
2022/03/16 03:13:31;;;;;;;8.27;4.10;;;3.90;99.90;;;;;;4916922;29;20051;-82
2022/03/16 03:15:57;;;;;;;7.85;4.53;;;4.00;99.90;;;;;;4915351;29;20441;-81
2022/03/16 03:18:23;;;;;;;10.35;5.05;;;3.90;99.90;;;;;;4917674;29;20147;-81
2022/03/16 03:20:48;;;;;;;10.32;4.50;;;3.90;99.90;;;;;;4916239;29;20074;-81
2022/03/16 03:23:14;;;;;;;7.15;3.65;;;3.90;99.90;;;;;;4917371;29;20095;-81
2022/03/16 03:25:40;;;;;;;6.30;3.63;;;3.80;99.90;;;;;;4915042;29;20391;-81
2022/03/16 03:28:05;;;;;;;6.10;3.00;;;3.70;99.90;;;;;;4917631;29;20075;-82
2022/03/16 03:30:31;;;;;;;3.80;2.67;;;3.70;99.90;;;;;;4916496;29;20032;-81
2022/03/16 03:32:57;;;;;;;6.13;3.30;;;3.70;99.90;;;;;;4913796;29;20119;-81
2022/03/16 03:35:22;;;;;;;8.60;4.28;;;3.80;99.90;;;;;;4912485;29;20281;-81
2022/03/16 03:37:51;;;;;;;9.00;4.30;;;3.80;99.90;;;;;;4914131;29;20047;-82
2022/03/16 03:40:16;;;;;;;7.47;4.75;;;4.10;99.90;;;;;;4913853;29;20043;-82
2022/03/16 03:42:42;;;;;;;11.00;5.50;;;4.10;99.90;;;;;;4929786;29;20028;-81
2022/03/16 03:45:08;;;;;;;9.65;5.72;;;4.10;99.90;;;;;;4921447;29;20543;-81
2022/03/16 03:47:34;;;;;;;5.97;4.22;;;4.10;99.90;;;;;;4933848;29;20051;-81
2022/03/16 03:49:59;;;;;;;9.35;4.30;;;4.20;99.90;;;;;;4932282;29;20015;-80
2022/03/16 03:52:25;;;;;;;8.27;3.80;;;4.00;99.90;;;;;;4930924;29;20103;-82
2022/03/16 03:54:51;;;;;;;8.27;4.20;;;4.00;99.90;;;;;;4933442;29;20436;-81
2022/03/16 03:57:16;;;;;;;8.38;4.30;;;3.80;99.90;;;;;;4932534;29;20131;-81
2022/03/16 03:59:43;;;;;;;8.57;4.60;;;3.80;99.90;;;;;;4932829;29;20036;-81
2022/03/16 04:02:09;;;;;;;8.02;4.57;;;3.80;99.90;;;;;;4930215;29;20031;-81
2022/03/16 04:04:35;;;;;;;7.78;5.28;;;3.80;99.90;;;;;;4931131;29;20028;-81
2022/03/16 04:07:01;;;;;;;12.25;5.55;;;3.80;99.90;;;;;;4945732;29;20476;-81
2022/03/16 04:09:26;;;;;;;14.88;6.55;;;3.90;99.90;;;;;;4932525;29;20374;-81
2022/03/16 04:11:52;;;;;;;9.57;6.15;;;3.90;99.90;;;;;;4933338;29;20046;-81
2022/03/16 04:14:18;;;;;;;9.63;5.10;;;3.80;99.90;;;;;;4940360;29;20127;-81
2022/03/16 04:16:43;;;;;;;5.88;4.15;;;3.70;99.90;;;;;;4939497;29;20028;-81
2022/03/16 04:19:09;;;;;;;11.52;6.47;;;3.60;99.90;;;;;;4940889;29;20027;-81
2022/03/16 04:21:35;;;;;;;9.88;4.90;;;3.60;99.90;;;;;;4944019;29;20040;-82
2022/03/16 04:24:02;;;;;;;8.63;4.30;;;3.50;99.90;;;;;;4946299;29;20023;-82
2022/03/16 04:26:27;;;;;;;10.20;4.70;;;3.60;99.90;;;;;;4943546;29;20032;-79
2022/03/16 04:28:53;;;;;;;8.57;4.10;;;3.60;99.90;;;;;;4933650;29;20444;-79
2022/03/16 04:31:21;;;;;;;11.77;4.68;;;3.50;99.90;;;;;;4932891;29;20051;-79
2022/03/16 04:33:46;;;;;;;8.55;5.00;;;3.50;99.90;;;;;;4933722;29;20037;-80
2022/03/16 04:36:12;;;;;;;9.68;4.97;;;3.50;99.90;;;;;;4932694;29;20057;-79
2022/03/16 04:38:38;;;;;;;11.27;6.22;;;3.50;99.90;;;;;;4934439;29;20604;-79
2022/03/16 04:41:04;;;;;;;8.80;4.97;;;3.40;99.90;;;;;;4933819;29;20042;-80
2022/03/16 04:43:30;;;;;;;11.43;5.25;;;3.40;99.90;;;;;;4932568;29;20380;-79
2022/03/16 04:45:55;;;;;;;8.35;4.60;;;3.30;99.90;;;;;;4935929;29;20075;-80
2022/03/16 04:48:21;;;;;;;9.50;5.82;;;4.60;99.90;;;;;;4935248;29;20345;-80
2022/03/16 04:50:47;;;;;;;9.85;5.80;;;3.20;99.90;;;;;;4933480;29;20038;-80
2022/03/16 04:53:13;;;;;;;10.93;5.05;;;3.10;99.90;;;;;;4933451;29;20024;-80
2022/03/16 04:55:38;;;;;;;8.73;5.35;;;3.00;99.90;;;;;;4934552;29;20577;-79
2022/03/16 04:58:05;;;;;;;9.60;5.53;;;3.00;99.90;;;;;;4933164;29;20531;-79
2022/03/16 05:00:32;;;;;;;8.35;4.63;;;2.80;99.90;;;;;;4933195;29;20058;-79
2022/03/16 05:02:57;;;;;;;7.45;4.18;;;2.80;99.90;;;;;;4933380;29;20102;-79
2022/03/16 05:05:23;;;;;;;9.95;5.30;;;2.80;99.90;;;;;;4933215;29;20491;-79
2022/03/16 05:07:49;;;;;;;14.93;5.75;;;2.80;99.90;;;;;;4934346;29;20472;-79
2022/03/16 05:10:14;;;;;;;10.00;5.18;;;2.80;99.90;;;;;;4934729;29;20039;-80
2022/03/16 05:12:42;;;;;;;11.25;5.90;;;2.70;99.90;;;;;;4932896;29;20028;-80
2022/03/16 05:15:12;;;;;;;12.05;5.63;;;2.70;99.90;;;;;;4933967;29;20031;-80
2022/03/16 05:17:38;;;;;;;9.55;5.00;;;2.70;99.90;;;;;;4932604;29;20023;-80
2022/03/16 05:20:05;;;;;;;6.43;4.32;;;2.70;99.90;;;;;;4932005;29;20042;-80
2022/03/16 05:22:31;;;;;;;6.45;4.15;;;2.80;99.90;;;;;;4932594;29;20079;-80
2022/03/16 05:24:57;;;;;;;10.48;5.63;;;2.80;99.90;;;;;;4932568;29;20413;-80
2022/03/16 05:27:23;;;;;;;9.10;5.65;;;2.80;99.90;;;;;;4934247;29;20257;-80
2022/03/16 05:29:49;;;;;;;9.75;5.70;;;2.90;99.90;;;;;;4932500;29;20067;-80
2022/03/16 05:32:15;;;;;;;7.43;4.40;;;3.00;99.90;;;;;;4932650;29;20353;-80
2022/03/16 05:34:40;;;;;;;8.85;5.10;;;2.90;99.90;;;;;;4932493;29;20227;-80
2022/03/16 05:37:06;;;;;;;10.50;5.18;;;2.90;99.90;;;;;;4931786;29;20480;-80
2022/03/16 05:39:32;;;;;;;9.35;5.75;;;2.90;99.90;;;;;;4934190;29;20027;-80
2022/03/16 05:42:00;;;;;;;9.52;5.40;;;2.90;99.90;;;;;;4932262;29;20030;-80
2022/03/16 05:44:26;;;;;;;10.65;6.18;;;3.00;99.90;;;;;;4932767;29;20059;-80
2022/03/16 05:46:53;;;;;;;11.93;7.13;;;3.10;99.90;;;;;;4933767;29;20059;-80
2022/03/16 05:49:19;;;;;;;8.23;5.45;;;3.20;99.90;;;;;;4932266;29;20081;-80
2022/03/16 05:51:44;;;;;;;8.32;4.88;;;3.20;99.90;;;;;;4933863;29;20477;-80
2022/03/16 05:54:10;;;;;;;8.80;5.13;;;3.10;99.90;;;;;;4932077;29;20699;-80
2022/03/16 05:56:36;;;;;;;9.32;5.25;;;3.00;99.90;;;;;;4932284;29;20032;-80
2022/03/16 05:59:03;;;;;;;11.38;6.70;;;3.00;99.90;;;;;;4932367;29;20063;-80
2022/03/16 06:01:28;;;;;;;9.65;5.13;;;3.00;99.90;;;;;;4931576;29;20120;-80
2022/03/16 06:03:54;;;;;;;9.73;6.00;;;3.10;99.90;;;;;;4931642;29;20132;-80
2022/03/16 06:06:20;;;;;;;10.00;5.70;;;3.10;99.90;;;;;;4931808;29;20042;-80
2022/03/16 06:08:46;;;;;;;11.63;5.78;;;3.20;99.90;;;;;;4931594;29;20051;-80
2022/03/16 06:11:11;;;;;;;14.30;5.88;;;3.20;99.90;;;;;;4933430;29;20024;-80
2022/03/16 06:13:37;;;;;;;9.00;5.70;;;3.30;99.90;;;;;;4932317;29;20031;-80
2022/03/16 06:16:03;;;;;;;13.88;6.50;;;3.40;99.90;;;;;;4933088;29;20027;-80
2022/03/16 06:18:29;;;;;;;16.75;6.35;;;3.40;99.90;;;;;;4933359;29;20432;-79
2022/03/16 06:20:54;;;;;;;13.13;6.15;;;3.50;99.90;;;;;;4931682;29;20046;-80
2022/03/16 06:23:20;;;;;;;18.88;7.72;;;3.60;99.90;;;;;;4932484;29;20110;-78
2022/03/16 06:25:46;;;;;;;14.88;7.30;;;3.60;99.90;;;;;;4932616;29;20102;-78
2022/03/16 06:28:12;;;;;;;9.73;6.65;;;3.70;99.90;;;;;;4932454;29;20020;-77
2022/03/16 06:30:38;;;;;;;19.40;7.53;;;3.80;99.90;;;;;;4931257;29;20507;-77
2022/03/16 06:33:04;;;;;;;20.60;8.25;;;4.00;99.90;;;;;;4932741;29;20110;-77
2022/03/16 06:35:30;;;;;;;16.50;8.25;;;4.00;99.90;;;;;;4932705;29;20099;-78
2022/03/16 06:37:55;;;;;;;14.63;8.23;;;4.10;99.90;;;;;;4932693;29;20034;-78
2022/03/16 06:40:21;;;;;;;29.55;9.00;;;4.10;99.90;;;;;;4932359;29;20027;-78
2022/03/16 06:42:54;;;;;;;24.95;10.32;;;4.20;99.90;;;;;;4930953;29;20094;-78
2022/03/16 06:45:21;;;;;;;28.98;9.13;;;4.40;99.90;;;;;;4940585;29;20030;-78
2022/03/16 06:47:47;;;;;;;17.77;8.52;;;4.60;99.90;;;;;;4933799;29;20059;-78
2022/03/16 06:50:13;;;;;;;22.77;9.93;;;4.60;99.90;;;;;;4938022;29;20050;-78
2022/03/16 06:52:40;;;;;;;21.35;8.80;;;4.70;99.90;;;;;;4930403;29;20027;-78
2022/03/16 06:55:08;;;;;;;23.40;9.68;;;4.60;99.90;;;;;;4930620;29;20020;-78
2022/03/16 06:57:34;;;;;;;27.45;11.18;;;4.80;99.90;;;;;;4929252;29;20488;-78
2022/03/16 07:00:00;;;;;;;28.67;10.38;;;4.90;99.90;;;;;;4924634;29;20444;-78
2022/03/16 07:02:26;;;;;;;32.15;10.35;;;5.00;99.90;;;;;;4938153;29;20382;-78
2022/03/16 07:04:53;;;;;;;27.55;10.50;;;5.10;99.90;;;;;;4953007;29;20495;-79
2022/03/16 07:07:18;;;;;;;38.88;11.63;;;5.40;99.90;;;;;;4952796;28;20028;-79
2022/03/16 07:09:44;;;;;;;29.60;10.57;;;5.40;99.90;;;;;;4928361;29;20051;-79
2022/03/16 07:12:10;;;;;;;32.78;11.30;;;5.60;99.90;;;;;;4930755;29;20460;-81
2022/03/16 07:14:36;;;;;;;29.17;13.02;;;5.70;99.90;;;;;;4944505;29;20305;-79
2022/03/16 07:17:03;;;;;;;45.38;13.93;;;6.00;99.90;;;;;;4943376;29;20027;-81
2022/03/16 07:19:29;;;;;;;44.58;15.00;;;6.00;99.90;;;;;;4917713;29;20049;-79
2022/03/16 07:22:01;;;;;;;42.28;14.07;;;6.10;99.90;;;;;;4909665;29;20032;-80
2022/03/16 07:24:27;;;;;;;44.17;16.60;;;6.10;99.90;;;;;;4913166;29;20075;-82
2022/03/16 07:26:55;;;;;;;48.00;15.30;;;6.10;99.90;;;;;;4918369;29;20025;-80
2022/03/16 07:29:21;;;;;;;42.08;15.75;;;6.10;99.90;;;;;;4920002;29;20024;-80
2022/03/16 07:31:47;;;;;;;35.80;15.00;;;6.20;99.90;;;;;;4913495;29;20317;-80
2022/03/16 07:34:14;;;;;;;44.63;16.73;;;6.20;99.90;;;;;;4930520;29;20661;-81
2022/03/16 07:36:41;;;;;;;43.60;16.88;;;6.30;99.90;;;;;;4919318;29;20036;-80
2022/03/16 07:39:06;;;;;;;48.10;14.45;;;6.10;99.90;;;;;;4943518;29;20044;-82
2022/03/16 07:41:32;;;;;;;40.13;14.25;;;6.10;99.90;;;;;;4941088;29;20064;-82
2022/03/16 07:43:58;;;;;;;32.75;12.90;;;6.00;99.90;;;;;;4922626;29;20599;-78
2022/03/16 07:46:23;;;;;;;50.80;14.70;;;5.90;99.90;;;;;;4938901;29;20036;-81
2022/03/16 07:48:49;;;;;;;35.55;15.63;;;6.00;99.90;;;;;;4916867;29;20028;-80
2022/03/16 07:51:15;;;;;;;36.60;15.32;;;6.10;99.90;;;;;;4921481;29;20055;-80
2022/03/16 07:53:41;;;;;;;48.67;16.25;;;6.20;99.90;;;;;;4924606;29;20484;-81
2022/03/16 07:56:07;;;;;;;36.50;14.00;;;6.40;99.90;;;;;;4931395;29;20027;-81
2022/03/16 07:58:33;;;;;;;44.50;16.58;;;6.80;99.90;;;;;;4937208;29;20027;-80
2022/03/16 08:00:59;;;;;;;41.38;15.93;;;6.90;99.90;;;;;;4933352;29;20114;-80
2022/03/16 08:03:26;;;;;;;42.97;15.90;;;7.20;99.90;;;;;;4948358;29;20031;-80
2022/03/16 08:05:51;;;;;;;36.60;15.55;;;6.90;99.90;;;;;;4947393;29;20035;-78
2022/03/16 08:08:18;;;;;;;36.45;14.35;;;6.70;99.90;;;;;;4931073;29;20052;-78
2022/03/16 08:10:44;;;;;;;33.78;14.32;;;6.60;99.90;;;;;;4934319;29;20023;-80
2022/03/16 08:13:10;;;;;;;40.78;15.90;;;6.90;99.90;;;;;;4941098;29;20453;-78
2022/03/16 08:15:36;;;;;;;34.85;14.82;;;7.00;99.90;;;;;;4944207;29;20032;-82
2022/03/16 08:18:10;;;;;;;36.97;15.73;;;7.30;99.90;;;;;;4941599;29;20609;-78
2022/03/16 08:20:36;;;;;;;32.47;15.05;;;7.30;99.90;;;;;;4958701;29;20039;-80
2022/03/16 08:23:02;;;;;;;32.60;13.55;;;7.50;99.90;;;;;;4945229;29;20008;-79
2022/03/16 08:25:28;;;;;;;32.70;13.15;;;7.40;99.90;;;;;;4940142;29;20039;-78
2022/03/16 08:27:54;;;;;;;29.52;13.57;;;7.60;99.90;;;;;;4934364;29;20107;-79
2022/03/16 08:30:20;;;;;;;32.28;13.93;;;7.90;99.90;;;;;;4936645;29;20429;-80
2022/03/16 08:32:46;;;;;;;29.02;12.85;;;8.10;99.90;;;;;;4938160;29;20024;-79
2022/03/16 08:35:12;;;;;;;40.80;12.95;;;8.40;99.90;;;;;;4942096;29;20028;-80
2022/03/16 08:37:39;;;;;;;27.25;13.05;;;8.40;99.90;;;;;;4940763;29;20062;-79
2022/03/16 08:40:07;;;;;;;30.63;13.27;;;8.50;99.90;;;;;;4941517;29;20099;-80
2022/03/16 08:42:36;;;;;;;28.88;13.57;;;8.30;99.90;;;;;;4948984;29;20043;-80
2022/03/16 08:45:02;;;;;;;28.42;13.80;;;8.10;99.90;;;;;;4950267;29;20032;-79
2022/03/16 08:47:28;;;;;;;33.25;12.68;;;7.90;99.90;;;;;;4940765;29;20023;-80
2022/03/16 08:49:55;;;;;;;30.98;13.63;;;8.20;99.90;;;;;;4940413;29;20032;-78
2022/03/16 08:52:21;;;;;;;30.58;14.38;;;8.00;99.90;;;;;;4940625;29;20040;-80
2022/03/16 08:54:47;;;;;;;33.05;13.98;;;7.50;99.90;;;;;;4914108;29;20028;-82
2022/03/16 08:57:16;;;;;;;31.55;14.60;;;8.40;99.90;;;;;;4921422;29;20032;-78
2022/03/16 08:59:42;;;;;;;32.38;13.63;;;8.80;99.90;;;;;;4928388;29;20119;-81
2022/03/16 09:02:09;;;;;;;38.33;13.57;;;9.20;99.90;;;;;;4924468;29;20055;-80
2022/03/16 09:04:35;;;;;;;31.77;12.75;;;9.40;99.90;;;;;;4913607;29;20031;-82
2022/03/16 09:07:02;;;;;;;24.88;12.15;;;9.60;99.90;;;;;;4923831;29;20075;-79
2022/03/16 09:09:29;;;;;;;28.58;12.57;;;9.40;99.90;;;;;;4951653;29;20059;-81
2022/03/16 09:11:55;;;;;;;27.80;13.73;;;9.60;99.90;;;;;;4941263;29;20028;-82
2022/03/16 09:14:21;;;;;;;25.67;12.27;;;9.70;99.90;;;;;;4937203;29;20070;-79
2022/03/16 09:16:47;;;;;;;25.20;12.02;;;10.00;99.90;;;;;;4929575;29;20342;-78
2022/03/16 09:19:20;;;;;;;33.15;12.88;;;10.00;99.90;;;;;;4927828;29;20110;-80
2022/03/16 09:21:47;;;;;;;24.85;13.15;;;9.50;99.90;;;;;;4930342;29;20130;-79
2022/03/16 09:24:13;;;;;;;25.95;13.38;;;9.50;99.90;;;;;;4930707;29;20503;-79
2022/03/16 09:26:42;;;;;;;22.85;11.50;;;9.20;99.90;;;;;;4930461;29;20098;-80
2022/03/16 09:29:12;;;;;;;25.73;12.93;;;9.70;99.90;;;;;;4929115;29;20235;-78
2022/03/16 09:31:39;;;;;;;28.80;14.07;;;9.70;99.90;;;;;;4930987;29;20020;-78
2022/03/16 09:34:07;;;;;;;26.50;12.23;;;9.80;99.90;;;;;;4930664;29;20527;-78
2022/03/16 09:36:34;;;;;;;30.65;13.35;;;10.40;99.90;;;;;;4951021;28;20032;-81
2022/03/16 09:39:00;;;;;;;23.80;12.52;;;10.40;99.90;;;;;;4937053;29;20144;-79
2022/03/16 09:41:26;;;;;;;22.42;12.77;;;10.70;99.90;;;;;;4930736;29;20139;-79
2022/03/16 09:43:53;;;;;;;23.60;12.85;;;10.80;99.90;;;;;;4933275;29;20062;-80
2022/03/16 09:46:25;;;;;;;24.15;12.23;;;11.40;99.90;;;;;;4941827;29;20105;-83
2022/03/16 09:48:50;;;;;;;24.45;13.00;;;10.50;99.90;;;;;;4944416;29;20330;-80
2022/03/16 09:51:17;;;;;;;28.73;12.57;;;10.60;99.90;;;;;;4939832;29;20130;-78
2022/03/16 09:53:43;;;;;;;23.92;12.38;;;11.10;99.90;;;;;;4933414;29;20023;-79
2022/03/16 09:56:11;;;;;;;29.33;12.00;;;11.20;99.90;;;;;;4923873;29;20240;-82
2022/03/16 09:58:46;;;;;;;26.58;13.15;;;10.90;99.90;;;;;;4918579;29;20793;-82
2022/03/16 10:01:12;;;;;;;23.73;13.77;;;10.40;99.90;;;;;;4919927;29;20295;-80
2022/03/16 10:03:37;;;;;;;27.08;14.00;;;10.20;99.90;;;;;;4913761;29;20303;-80
2022/03/16 10:06:08;;;;;;;28.80;13.80;;;10.20;99.90;;;;;;4933446;29;20046;-81
2022/03/16 10:08:35;;;;;;;30.27;16.85;;;10.10;99.90;;;;;;4916251;29;20048;-82
2022/03/16 10:14:05;;;;;;;26.35;14.18;;;10.10;99.90;;;;;;4916830;29;20043;-80
2022/03/16 10:17:43;;;;;;;25.58;13.20;;;10.40;99.90;;;;;;4929188;29;20135;-82
2022/03/16 10:19:20;;;;;;;21.67;12.68;;;10.60;99.90;;;;;;4931042;29;20042;-79
2022/03/16 10:22:02;;;;;;;26.77;13.23;;;10.60;99.90;;;;;;4930516;29;20135;-79
2022/03/16 10:24:31;;;;;;;29.05;13.82;;;10.80;99.90;;;;;;4931914;29;20049;-81
2022/03/16 10:27:00;;;;;;;24.40;13.65;;;10.70;99.90;;;;;;4936576;29;20595;-78
2022/03/16 10:29:27;;;;;;;24.70;13.02;;;10.40;99.90;;;;;;4936403;29;20028;-78
2022/03/16 10:32:03;;;;;;;27.65;13.90;;;10.60;99.90;;;;;;4933457;29;20038;-84
2022/03/16 10:34:30;;;;;;;29.80;14.98;;;10.50;99.90;;;;;;4955071;29;20109;-81
2022/03/16 10:36:59;;;;;;;26.35;13.57;;;10.50;99.90;;;;;;4938280;29;20111;-78
2022/03/16 10:39:37;;;;;;;27.45;13.95;;;10.20;99.90;;;;;;4929669;29;20347;-78
2022/03/16 10:47:50;;;;;;;26.33;13.90;;;10.60;99.90;;;;;;4927744;29;20091;-78
2022/03/16 10:50:17;;;;;;;30.75;15.13;;;10.30;99.90;;;;;;4928350;29;20086;-78
2022/03/16 10:52:44;;;;;;;30.05;15.75;;;10.40;99.90;;;;;;4943718;29;20509;-78
2022/03/16 10:55:12;;;;;;;33.03;16.88;;;10.40;99.90;;;;;;4929157;29;20028;-78
2022/03/16 10:57:38;;;;;;;28.58;13.68;;;10.20;99.90;;;;;;4929038;29;20423;-79
2022/03/16 11:00:05;;;;;;;26.15;14.18;;;10.70;99.90;;;;;;4943804;29;20507;-78
2022/03/16 11:02:34;;;;;;;26.52;14.30;;;10.70;99.90;;;;;;4930412;29;20035;-78
2022/03/16 11:05:00;;;;;;;25.42;12.88;;;10.80;99.90;;;;;;4928583;29;20441;-78
2022/03/16 11:07:27;;;;;;;31.17;15.13;;;10.90;99.90;;;;;;4944053;29;20063;-78
2022/03/16 11:09:54;;;;;;;30.42;15.30;;;10.80;99.90;;;;;;4928890;29;20055;-78
2022/03/16 11:15:18;;;;;;;26.70;13.70;;;10.40;99.90;;;;;;4893266;29;20541;-78
2022/03/16 11:17:45;;;;;;;28.95;13.77;;;10.30;99.90;;;;;;4927133;29;20473;-77
2022/03/16 11:20:12;;;;;;;30.00;13.48;;;10.40;99.90;;;;;;4929373;29;20050;-78
2022/03/16 11:26:00;;;;;;;28.52;13.98;;;10.40;99.90;;;;;;4936193;29;20096;-78
2022/03/16 11:28:45;;;;;;;29.88;12.77;;;10.70;99.90;;;;;;4920806;29;20036;-78
2022/03/16 11:31:14;;;;;;;28.88;13.25;;;11.10;99.90;;;;;;4943084;29;20035;-78
2022/03/16 11:33:50;;;;;;;28.53;13.33;;;12.70;99.90;;;;;;4942522;29;20160;-78
2022/03/16 11:36:34;;;;;;;26.92;14.02;;;11.30;99.90;;;;;;4927372;29;20095;-78
2022/03/16 11:39:02;;;;;;;36.67;14.48;;;11.40;99.90;;;;;;4927771;29;20034;-78
2022/03/16 11:41:32;;;;;;;29.15;12.55;;;11.50;99.90;;;;;;4926210;29;20453;-77
2022/03/16 11:44:03;;;;;;;27.60;13.90;;;11.50;99.90;;;;;;4917112;29;20021;-79
2022/03/16 11:46:31;;;;;;;28.42;14.40;;;11.40;99.90;;;;;;4908858;29;20036;-78
2022/03/16 11:49:02;;;;;;;28.95;12.93;;;11.40;99.90;;;;;;4910240;29;20032;-78
2022/03/16 11:51:28;;;;;;;29.58;13.30;;;11.70;99.90;;;;;;4911065;29;20036;-78
2022/03/16 11:54:01;;;;;;;27.77;12.18;;;11.70;99.90;;;;;;4916446;29;20162;-78
2022/03/16 11:56:42;;;;;;;29.42;12.05;;;11.50;99.90;;;;;;4935861;29;20047;-79
2022/03/16 11:59:28;;;;;;;30.00;13.35;;;11.70;99.90;;;;;;4931834;29;20026;-78
2022/03/16 12:02:17;;;;;;;29.95;13.05;;;11.70;99.90;;;;;;4932910;29;20229;-78
2022/03/16 12:04:45;;;;;;;;;;;11.40;99.90;;;;;;4936118;29;20075;-78
2022/03/16 12:07:15;;;;;;;27.40;12.20;;;11.50;99.90;;;;;;4933958;29;19991;-78
2022/03/16 12:09:42;;;;;;;33.42;15.07;;;11.60;99.90;;;;;;4925411;29;20047;-79
2022/03/16 12:15:11;;;;;;;31.77;14.40;;;11.40;99.90;;;;;;4928518;29;20488;-78
2022/03/16 12:18:00;;;;;;;28.35;12.55;;;11.30;99.90;;;;;;4929062;29;20028;-78
2022/03/16 12:20:37;;;;;;;31.10;13.50;;;11.50;99.90;;;;;;4942662;29;20039;-78
2022/03/16 12:23:11;;;;;;;33.60;14.30;;;11.70;99.90;;;;;;4924727;29;20118;-78
2022/03/16 12:25:43;;;;;;;35.88;15.48;;;11.60;99.90;;;;;;4918540;29;20111;-78
2022/03/16 12:31:08;;;;;;;36.80;17.25;;;11.20;99.90;;;;;;4914214;29;20075;-78
2022/03/16 12:33:43;;;;;;;37.00;14.97;;;11.00;99.90;;;;;;4923255;29;20093;-78
2022/03/16 12:36:17;;;;;;;36.42;14.73;;;11.20;99.90;;;;;;4917514;29;20619;-77
2022/03/16 12:38:48;;;;;;;32.67;13.90;;;10.70;99.90;;;;;;4911435;29;20036;-77
2022/03/16 12:44:03;;;;;;;37.85;17.20;;;11.00;99.90;;;;;;4912774;29;20518;-78
2022/03/16 12:46:48;;;;;;;32.50;13.68;;;11.00;99.90;;;;;;4913162;29;20083;-77
2022/03/16 12:49:17;;;;;;;32.60;12.65;;;11.10;99.90;;;;;;4921579;29;20047;-77
2022/03/16 12:51:46;;;;;;;38.05;14.90;;;10.90;99.90;;;;;;4940499;29;20024;-76
2022/03/16 12:54:14;;;;;;;30.55;13.52;;;10.90;99.90;;;;;;4921209;29;20029;-79
2022/03/16 12:56:50;;;;;;;32.85;14.73;;;10.90;99.90;;;;;;4946262;29;20413;-78
2022/03/16 12:59:27;;;;;;;32.53;14.02;;;10.70;99.90;;;;;;4944277;29;20035;-76
2022/03/16 13:01:58;;;;;;;25.98;12.82;;;10.70;99.90;;;;;;4950182;29;20390;-78
2022/03/16 13:04:25;;;;;;;30.42;15.38;;;10.60;99.90;;;;;;4953363;29;20008;-77
2022/03/16 13:06:57;;;;;;;28.63;12.57;;;11.00;99.90;;;;;;4949895;29;20055;-76
2022/03/16 13:09:34;;;;;;;29.90;13.40;;;10.90;99.90;;;;;;4948713;29;20428;-78